Time;durP1;ratioP1;P1;durP2;ratioP2;P2;SDS_P1;SDS_P2;PMS_P1;PMS_P2;Temp;Humidity;BMP_temperature;BMP_pressure;BME280_temperature;BME280_humidity;BME280_pressure;Samples;Min_cycle;Max_cycle;Signal;HPM_P1;HPM_P2
2022/03/07 00:00:51;;;;;;;;;8.00;5.75;;;;;7.83;70.55;100477.22;5025491;28;45436;-76
2022/03/07 00:03:17;;;;;;;;;9.25;7.00;;;;;7.84;70.43;100489.38;5024196;28;45503;-76
2022/03/07 00:05:42;;;;;;;;;9.00;8.00;;;;;7.99;70.79;100510.81;5027541;28;45366;-76
2022/03/07 00:08:08;;;;;;;;;7.75;6.50;;;;;8.08;70.99;100513.78;5025377;28;45410;-75
2022/03/07 00:10:34;;;;;;;;;8.00;7.75;;;;;7.91;70.24;100500.09;5041185;28;45598;-76
2022/03/07 00:13:00;;;;;;;;;10.00;9.00;;;;;8.03;70.69;100507.50;5023976;28;45465;-75
2022/03/07 00:15:26;;;;;;;;;8.75;8.00;;;;;7.99;70.85;100508.22;5024328;28;45333;-75
2022/03/07 00:17:51;;;;;;;;;11.25;8.75;;;;;7.82;70.62;100478.03;5022743;28;45309;-79
2022/03/07 00:20:17;;;;;;;;;53.00;37.75;;;;;8.03;70.63;100523.13;5024726;28;46537;-75
2022/03/07 00:22:42;;;;;;;;;11.50;11.00;;;;;7.99;70.19;100515.13;5024320;28;45256;-75
2022/03/07 00:25:09;;;;;;;;;10.50;10.00;;;;;7.98;70.32;100506.47;5025080;28;45757;-76
2022/03/07 00:27:34;;;;;;;;;14.00;12.50;;;;;7.94;70.40;100496.75;5026050;28;45497;-75
2022/03/07 00:30:00;;;;;;;;;9.00;7.75;;;;;7.97;70.12;100509.88;5024601;28;45620;-75
2022/03/07 00:32:27;;;;;;;;;10.75;10.50;;;;;8.01;70.59;100524.78;5024568;28;45452;-75
2022/03/07 00:34:52;;;;;;;;;7.50;6.00;;;;;7.81;70.64;100505.75;5022819;28;45455;-75
2022/03/07 00:37:18;;;;;;;;;4.00;4.00;;;;;7.56;70.78;100476.19;5025971;28;45578;-75
2022/03/07 00:39:43;;;;;;;;;8.00;7.00;;;;;7.51;71.11;100489.81;5024083;28;45431;-75
2022/03/07 00:42:09;;;;;;;;;8.75;7.25;;;;;7.34;71.26;100479.59;5025323;28;45453;-75
2022/03/07 00:44:34;;;;;;;;;3.00;3.00;;;;;7.30;71.94;100490.69;5029214;28;45597;-75
2022/03/07 00:47:00;;;;;;;;;4.75;4.00;;;;;7.30;71.85;100506.28;5026661;28;45339;-75
2022/03/07 00:49:26;;;;;;;;;4.00;3.00;;;;;7.21;71.75;100500.69;5027180;28;45468;-75
2022/03/07 00:51:51;;;;;;;;;7.00;6.00;;;;;7.15;71.98;100509.09;5043926;28;45433;-75
2022/03/07 00:54:17;;;;;;;;;4.00;4.00;;;;;7.00;72.72;100486.78;5026816;28;45427;-75
2022/03/07 00:56:42;;;;;;;;;5.25;4.00;;;;;6.99;72.41;100498.00;5029070;28;45477;-74
2022/03/07 00:59:08;;;;;;;;;6.00;6.00;;;;;6.82;72.66;100485.16;5043339;28;47345;-75
2022/03/07 01:01:34;;;;;;;;;2.50;2.00;;;;;6.86;72.51;100494.84;5026343;28;45663;-76
2022/03/07 01:04:00;;;;;;;;;4.00;3.75;;;;;6.83;72.71;100512.03;5044952;28;45433;-78
2022/03/07 01:06:25;;;;;;;;;4.00;3.75;;;;;6.82;73.29;100521.50;5027976;28;45319;-77
2022/03/07 01:08:51;;;;;;;;;4.00;3.00;;;;;6.11;73.00;100398.09;5026916;28;46258;-77
2022/03/07 01:11:17;;;;;;;;;3.00;3.00;;;;;6.50;72.63;100482.00;5044106;28;45331;-77
2022/03/07 01:13:43;;;;;;;;;3.00;2.50;;;;;6.47;73.70;100486.19;5042891;28;45529;-77
2022/03/07 01:16:09;;;;;;;;;3.00;3.00;;;;;6.49;72.98;100497.53;5026785;28;45516;-77
2022/03/07 01:18:34;;;;;;;;;3.00;3.00;;;;;6.34;73.45;100492.50;5027383;28;46814;-78
2022/03/07 01:21:00;;;;;;;;;3.50;3.50;;;;;6.30;73.56;100494.06;5027179;28;45506;-77
2022/03/07 01:23:26;;;;;;;;;8.50;8.00;;;;;6.37;73.23;100518.59;5027116;28;45617;-78
2022/03/07 01:25:51;;;;;;;;;27.50;22.00;;;;;6.32;73.75;100507.13;5028998;28;45465;-77
2022/03/07 01:28:17;;;;;;;;;32.50;24.50;;;;;6.26;73.63;100501.66;5028182;28;47110;-77
2022/03/07 01:30:43;;;;;;;;;24.50;20.00;;;;;6.25;74.05;100494.69;5026936;28;45427;-77
2022/03/07 01:33:08;;;;;;;;;25.25;22.75;;;;;6.23;73.73;100478.13;5026445;28;45557;-76
2022/03/07 01:35:34;;;;;;;;;12.75;12.00;;;;;6.49;73.67;100505.31;5026538;28;45326;-77
2022/03/07 01:38:00;;;;;;;;;8.00;6.50;;;;;6.63;73.45;100501.63;5026855;28;45511;-76
2022/03/07 01:40:25;;;;;;;;;8.50;7.00;;;;;6.70;73.29;100493.28;5026091;28;45558;-76
2022/03/07 01:42:51;;;;;;;;;11.25;10.75;;;;;6.43;73.12;100427.19;5026621;28;45562;-77
2022/03/07 01:45:20;;;;;;;;;6.00;4.00;;;;;6.94;71.75;100497.78;5026164;28;45319;-77
2022/03/07 01:47:47;;;;;;;;;6.00;4.00;;;;;6.92;71.99;100487.34;5027052;28;45526;-76
2022/03/07 01:50:17;;;;;;;;;3.00;3.00;;;;;6.97;71.05;100490.13;5025577;28;45559;-76
2022/03/07 01:52:47;;;;;;;;;4.00;3.50;;;;;6.86;71.14;100470.59;5024654;28;45537;-77
2022/03/07 01:55:14;;;;;;;;;7.00;6.00;;;;;6.86;71.66;100479.25;5027043;28;45463;-77
2022/03/07 01:57:42;;;;;;;;;12.00;12.00;;;;;6.61;72.21;100432.31;5043008;28;46259;-75
2022/03/07 02:00:14;;;;;;;;;16.50;12.75;;;;;6.85;71.80;100469.72;5025854;28;45400;-77
2022/03/07 02:02:40;;;;;;;;;19.25;16.50;;;;;6.87;71.46;100464.59;5026556;28;45793;-77
2022/03/07 02:05:06;;;;;;;;;17.75;14.25;;;;;6.76;71.50;100438.16;5028151;28;45476;-77
2022/03/07 02:07:31;;;;;;;;;16.00;14.00;;;;;6.91;70.82;100457.00;5026469;28;46160;-76
2022/03/07 02:09:58;;;;;;;;;12.50;9.75;;;;;6.82;71.41;100430.63;5026827;28;45542;-77
2022/03/07 02:12:24;;;;;;;;;6.00;5.50;;;;;6.92;71.75;100435.41;5026881;28;45495;-74
2022/03/07 02:14:50;;;;;;;;;6.00;6.00;;;;;7.11;71.58;100463.03;5041720;28;45290;-76
2022/03/07 02:17:16;;;;;;;;;6.75;6.25;;;;;7.09;71.12;100449.09;5025716;28;45677;-77
2022/03/07 02:19:42;;;;;;;;;4.00;3.75;;;;;7.03;71.08;100424.59;5027653;28;45434;-76
2022/03/07 02:22:10;;;;;;;;;3.00;3.00;;;;;7.12;70.93;100435.34;5025814;28;45398;-77
2022/03/07 02:24:36;;;;;;;;;4.00;4.00;;;;;7.15;71.11;100438.09;5025911;28;45529;-77
2022/03/07 02:27:05;;;;;;;;;3.75;3.75;;;;;7.01;70.47;100408.06;5027577;28;46649;-77
2022/03/07 02:29:31;;;;;;;;;3.25;3.25;;;;;7.29;70.42;100451.66;5024893;28;45796;-76
2022/03/07 02:31:58;;;;;;;;;4.00;4.00;;;;;7.30;70.58;100453.41;5025166;28;45557;-76
2022/03/07 02:34:24;;;;;;;;;4.00;4.00;;;;;7.21;69.98;100435.75;5027412;28;45598;-75
2022/03/07 02:36:49;;;;;;;;;3.00;3.00;;;;;7.19;70.16;100429.59;5042902;28;47737;-76
2022/03/07 02:39:15;;;;;;;;;3.00;3.00;;;;;7.13;70.59;100417.22;5026269;28;45518;-76
2022/03/07 02:41:43;;;;;;;;;3.00;3.00;;;;;7.05;70.55;100394.38;5024769;28;45532;-77
2022/03/07 02:44:09;;;;;;;;;6.75;3.25;;;;;7.01;70.20;100400.25;5043314;28;45642;-75
2022/03/07 02:46:35;;;;;;;;;6.00;3.50;;;;;7.02;70.41;100391.63;5041516;28;45711;-76
2022/03/07 02:49:02;;;;;;;;;4.00;4.00;;;;;7.17;70.65;100421.72;5025918;28;45445;-76
2022/03/07 02:51:28;;;;;;;;;4.00;3.00;;;;;7.20;70.53;100423.56;5042579;28;45469;-77
2022/03/07 02:53:53;;;;;;;;;2.50;2.00;;;;;7.11;70.71;100405.00;5041239;28;45359;-76
2022/03/07 02:56:19;;;;;;;;;3.75;3.00;;;;;7.06;70.75;100391.84;5024765;28;47828;-76
2022/03/07 02:58:44;;;;;;;;;3.50;3.25;;;;;7.07;70.43;100396.19;5042771;28;45754;-76
2022/03/07 03:01:11;;;;;;;;;3.00;3.00;;;;;7.11;70.98;100398.09;5040804;28;45502;-76
2022/03/07 03:03:37;;;;;;;;;4.00;4.00;;;;;7.12;71.09;100402.47;5026351;28;45358;-76
2022/03/07 03:06:03;;;;;;;;;3.00;3.00;;;;;7.11;72.13;100416.28;5025339;28;45435;-76
2022/03/07 03:08:29;;;;;;;;;5.50;3.75;;;;;6.78;72.24;100371.59;5025634;28;45395;-76
2022/03/07 03:10:58;;;;;;;;;4.00;3.00;;;;;6.93;72.29;100408.59;5041273;28;45386;-76
2022/03/07 03:13:24;;;;;;;;;4.00;4.00;;;;;7.03;72.54;100416.78;5025235;28;45587;-76
2022/03/07 03:15:51;;;;;;;;;3.50;3.50;;;;;6.61;72.30;100350.13;5041800;28;47300;-76
2022/03/07 03:18:18;;;;;;;;;6.75;4.00;;;;;7.02;72.36;100415.88;5041266;28;45591;-76
2022/03/07 03:20:46;;;;;;;;;7.00;6.00;;;;;7.02;71.95;100410.69;5025045;28;45538;-77
2022/03/07 03:23:12;;;;;;;;;3.50;3.50;;;;;7.06;72.30;100410.03;5025676;28;45525;-76
2022/03/07 03:25:38;;;;;;;;;3.50;3.50;;;;;6.81;72.42;100361.34;5025492;28;46240;-77
2022/03/07 03:28:05;;;;;;;;;6.00;6.00;;;;;7.12;71.81;100405.09;5026824;28;45482;-76
2022/03/07 03:30:30;;;;;;;;;4.50;4.50;;;;;6.96;72.04;100374.06;5023784;28;45276;-76
2022/03/07 03:32:56;;;;;;;;;4.00;4.00;;;;;7.07;71.58;100385.81;5024595;28;45371;-76
2022/03/07 03:35:22;;;;;;;;;4.00;3.00;;;;;6.99;71.80;100368.16;5024071;28;45510;-76
2022/03/07 03:37:47;;;;;;;;;4.00;4.00;;;;;7.01;71.57;100377.75;5041760;28;45585;-80
2022/03/07 03:40:13;;;;;;;;;6.50;4.00;;;;;7.09;71.60;100393.66;5040467;28;45579;-76
2022/03/07 03:42:39;;;;;;;;;5.00;5.00;;;;;6.95;72.18;100383.59;5025454;28;45447;-77
2022/03/07 03:45:08;;;;;;;;;4.00;4.00;;;;;6.81;71.98;100368.25;5041984;28;45536;-77
2022/03/07 03:47:41;;;;;;;;;5.50;5.50;;;;;6.75;72.09;100363.69;5027292;28;45385;-76
2022/03/07 03:50:08;;;;;;;;;6.00;4.50;;;;;6.74;71.64;100378.38;5030891;28;45454;-78
2022/03/07 03:52:34;;;;;;;;;5.50;5.00;;;;;6.60;72.33;100356.13;5030967;28;45454;-74
2022/03/07 03:55:02;;;;;;;;;4.00;4.00;;;;;6.75;72.86;100380.16;5048162;28;45330;-77
2022/03/07 03:57:28;;;;;;;;;6.00;2.25;;;;;6.03;73.20;100257.72;5030221;28;45262;-76
2022/03/07 03:59:54;;;;;;;;;7.00;7.00;;;;;6.47;73.16;100326.19;5030564;28;45334;-77
2022/03/07 04:02:20;;;;;;;;;5.00;3.00;;;;;6.44;72.90;100325.16;5031686;28;45545;-77
2022/03/07 04:04:45;;;;;;;;;6.00;6.00;;;;;6.65;72.72;100365.00;5029794;28;45501;-76
2022/03/07 04:07:11;;;;;;;;;7.00;7.00;;;;;6.48;72.69;100340.91;5031556;28;45424;-76
2022/03/07 04:09:39;;;;;;;;;7.00;7.00;;;;;6.46;72.59;100347.75;5031575;28;45384;-77
2022/03/07 04:12:05;;;;;;;;;6.25;6.00;;;;;6.53;73.03;100343.72;5029692;28;45525;-76
2022/03/07 04:14:32;;;;;;;;;7.00;4.00;;;;;6.59;72.73;100361.28;5028870;28;45553;-76
2022/03/07 04:16:57;;;;;;;;;6.00;6.00;;;;;6.45;73.05;100342.50;5028688;28;45529;-76
2022/03/07 04:19:23;;;;;;;;;5.25;3.50;;;;;6.48;73.17;100351.28;5029545;28;45542;-76
2022/03/07 04:21:49;;;;;;;;;6.00;6.00;;;;;6.38;73.45;100331.84;5026561;28;45526;-75
2022/03/07 04:24:15;;;;;;;;;6.50;4.00;;;;;6.48;73.78;100350.41;5027895;28;46391;-75
2022/03/07 04:26:42;;;;;;;;;7.50;4.25;;;;;6.44;73.87;100340.72;5044300;28;45541;-76
2022/03/07 04:29:10;;;;;;;;;6.00;4.00;;;;;6.26;73.78;100317.47;5026500;28;45485;-76
2022/03/07 04:31:40;;;;;;;;;8.00;6.00;;;;;6.47;73.25;100356.44;5027554;28;45488;-76
2022/03/07 04:34:08;;;;;;;;;7.00;7.00;;;;;6.38;73.74;100342.22;5044839;28;45476;-76
2022/03/07 04:36:35;;;;;;;;;5.00;5.00;;;;;6.39;73.90;100348.31;5043656;28;45371;-75
2022/03/07 04:39:05;;;;;;;;;5.50;5.50;;;;;6.16;74.01;100309.28;5030654;28;45459;-76
2022/03/07 04:41:31;;;;;;;;;4.75;4.75;;;;;6.34;74.02;100340.31;5026469;28;45610;-76
2022/03/07 04:43:57;;;;;;;;;6.00;6.00;;;;;6.30;74.08;100337.53;5026979;28;46166;-76
2022/03/07 04:46:23;;;;;;;;;4.50;4.50;;;;;6.21;74.30;100317.28;5025492;28;45450;-76
2022/03/07 04:48:48;;;;;;;;;4.50;4.25;;;;;6.13;74.31;100305.69;5044505;28;45387;-76
2022/03/07 04:51:14;;;;;;;;;5.00;5.00;;;;;5.94;73.72;100267.63;5027012;28;45343;-76
2022/03/07 04:53:41;;;;;;;;;4.25;4.25;;;;;6.06;73.71;100291.53;5026644;28;45818;-76
2022/03/07 04:56:08;;;;;;;;;16.75;15.50;;;;;5.95;74.03;100288.47;5044533;28;45338;-76
2022/03/07 04:58:34;;;;;;;;;68.00;53.50;;;;;6.09;73.60;100330.59;5027653;28;45493;-76
2022/03/07 05:01:00;;;;;;;;;38.50;36.00;;;;;6.04;73.82;100326.00;5028065;28;45395;-76
2022/03/07 05:03:25;;;;;;;;;11.00;9.25;;;;;5.90;74.34;100302.03;5044273;28;47171;-76
2022/03/07 05:05:51;;;;;;;;;7.50;7.50;;;;;5.77;74.67;100292.81;5026824;28;45299;-75
2022/03/07 05:08:17;;;;;;;;;33.50;28.00;;;;;5.81;74.82;100299.00;5028609;28;45324;-74
2022/03/07 05:10:43;;;;;;;;;12.50;12.25;;;;;5.76;74.31;100286.72;5026335;28;45837;-74
2022/03/07 05:13:09;;;;;;;;;7.50;7.00;;;;;5.87;74.37;100299.28;5028892;28;46948;-75
2022/03/07 05:15:35;;;;;;;;;7.00;7.00;;;;;5.87;74.28;100295.00;5027459;28;45626;-74
2022/03/07 05:18:01;;;;;;;;;7.25;6.25;;;;;5.72;73.59;100274.44;5026418;28;45452;-74
2022/03/07 05:20:26;;;;;;;;;8.00;6.25;;;;;5.88;73.33;100296.75;5043923;28;45459;-74
2022/03/07 05:22:52;;;;;;;;;7.25;7.00;;;;;5.84;73.08;100278.41;5026829;28;45453;-77
2022/03/07 05:25:19;;;;;;;;;7.25;6.50;;;;;5.90;72.48;100282.16;5027772;28;45432;-75
2022/03/07 05:27:45;;;;;;;;;8.00;8.00;;;;;6.16;72.37;100313.56;5017727;28;45757;-76
2022/03/07 05:30:15;;;;;;;;;7.00;6.75;;;;;6.17;72.56;100308.47;5019572;28;45478;-76
2022/03/07 05:32:44;;;;;;;;;7.00;7.00;;;;;6.19;72.14;100303.34;5018334;28;45948;-75
2022/03/07 05:35:10;;;;;;;;;11.00;10.50;;;;;6.31;72.04;100300.41;5018398;28;45462;-76
2022/03/07 05:37:36;;;;;;;;;8.25;7.75;;;;;6.46;71.29;100319.19;5034757;28;45379;-76
2022/03/07 05:40:03;;;;;;;;;9.00;8.00;;;;;6.37;71.29;100285.09;5034928;28;45653;-76
2022/03/07 05:42:28;;;;;;;;;7.75;7.75;;;;;6.60;70.77;100316.31;5034319;28;45785;-76
2022/03/07 05:44:55;;;;;;;;;7.75;7.75;;;;;6.55;70.56;100292.78;5018772;28;45324;-76
2022/03/07 05:47:21;;;;;;;;;7.50;7.25;;;;;6.54;71.20;100281.47;5019203;28;45523;-76
2022/03/07 05:49:47;;;;;;;;;8.75;8.75;;;;;6.62;71.41;100291.31;5034281;28;45429;-76
2022/03/07 05:52:12;;;;;;;;;7.00;6.25;;;;;6.69;71.70;100308.94;5033809;28;47329;-76
2022/03/07 05:54:38;;;;;;;;;7.75;7.25;;;;;6.55;71.74;100287.59;5017544;28;45598;-76
2022/03/07 05:57:04;;;;;;;;;8.00;6.25;;;;;6.67;71.62;100313.16;5017962;28;45445;-76
2022/03/07 05:59:29;;;;;;;;;6.00;6.00;;;;;6.40;71.82;100264.44;5034376;28;45504;-77
2022/03/07 06:01:55;;;;;;;;;8.00;7.25;;;;;6.50;71.94;100297.75;5017609;28;45791;-76
2022/03/07 06:04:21;;;;;;;;;6.00;5.00;;;;;6.31;71.97;100256.31;5034171;28;45326;-76
2022/03/07 06:06:46;;;;;;;;;11.25;11.00;;;;;6.33;71.99;100263.31;5017561;28;45483;-76
2022/03/07 06:09:12;;;;;;;;;13.00;12.25;;;;;6.40;72.33;100272.25;5034036;28;45692;-75
2022/03/07 06:11:37;;;;;;;;;11.75;11.50;;;;;6.36;72.27;100266.03;5017788;28;45423;-76
2022/03/07 06:14:03;;;;;;;;;10.75;8.75;;;;;6.54;72.02;100301.38;5034450;28;45431;-76
2022/03/07 06:16:29;;;;;;;;;11.25;8.00;;;;;6.49;71.82;100303.78;5034105;28;45394;-76
2022/03/07 06:18:55;;;;;;;;;9.50;7.50;;;;;6.47;71.20;100310.59;5018572;28;45367;-77
2022/03/07 06:21:20;;;;;;;;;7.50;7.25;;;;;6.38;70.98;100303.31;5033465;28;45375;-77
2022/03/07 06:23:46;;;;;;;;;6.75;6.00;;;;;5.80;70.90;100215.19;5033294;28;45440;-76
2022/03/07 06:26:12;;;;;;;;;12.00;9.25;;;;;6.17;71.12;100295.50;5017500;28;45420;-76
2022/03/07 06:28:37;;;;;;;;;12.25;11.25;;;;;6.15;71.29;100310.09;5033864;28;45225;-77
2022/03/07 06:31:03;;;;;;;;;26.75;24.25;;;;;6.04;72.30;100311.31;5033586;28;45379;-76
2022/03/07 06:33:29;;;;;;;;;14.00;11.50;;;;;5.60;72.66;100255.75;5018077;28;45617;-76
2022/03/07 06:35:55;;;;;;;;;12.00;10.00;;;;;5.60;72.88;100283.38;5034032;28;45478;-76
2022/03/07 06:38:21;;;;;;;;;11.00;8.00;;;;;5.65;72.61;100300.00;5033620;28;45328;-78
2022/03/07 06:40:48;;;;;;;;;11.50;9.75;;;;;5.57;73.17;100292.78;5017526;28;46249;-76
2022/03/07 06:43:14;;;;;;;;;6.75;6.50;;;;;5.73;72.80;100324.56;5018491;28;45389;-76
2022/03/07 06:45:40;;;;;;;;;8.00;7.75;;;;;5.72;72.63;100315.03;5016833;28;45361;-77
2022/03/07 06:48:05;;;;;;;;;10.00;8.50;;;;;5.86;72.31;100323.44;5034358;28;45509;-76
2022/03/07 06:50:31;;;;;;;;;9.00;7.75;;;;;5.85;72.22;100319.06;5033307;28;45344;-76
2022/03/07 06:52:58;;;;;;;;;8.00;8.00;;;;;5.73;71.73;100289.19;5033294;28;45352;-77
2022/03/07 06:55:23;;;;;;;;;12.25;10.00;;;;;5.90;71.36;100318.47;5033301;28;45303;-77
2022/03/07 06:57:49;;;;;;;;;16.50;11.50;;;;;5.96;71.30;100302.31;5018354;28;45400;-76
2022/03/07 07:00:16;;;;;;;;;15.25;13.75;;;;;6.15;71.13;100317.88;5017903;28;45621;-76
2022/03/07 07:02:43;;;;;;;;;24.25;23.00;;;;;5.85;70.61;100233.50;5033375;28;45327;-76
2022/03/07 07:05:09;;;;;;;;;13.25;11.25;;;;;6.49;70.68;100332.31;5033489;28;45463;-77
2022/03/07 07:07:36;;;;;;;;;8.00;8.00;;;;;6.40;70.16;100303.38;5018028;28;45336;-77
2022/03/07 07:10:04;;;;;;;;;10.00;9.33;;;;;6.45;70.68;100296.69;5016554;28;46324;-76
2022/03/07 07:12:29;;;;;;;;;7.75;7.75;;;;;6.65;70.70;100314.81;5017843;28;45423;-76
2022/03/07 07:14:55;;;;;;;;;15.25;12.25;;;;;6.83;70.55;100314.69;5018131;28;45422;-76
2022/03/07 07:17:21;;;;;;;;;18.00;14.50;;;;;6.64;69.47;100256.78;5033290;28;45516;-77
2022/03/07 07:19:47;;;;;;;;;22.50;18.25;;;;;7.00;69.07;100298.06;5032857;28;47801;-77
2022/03/07 07:22:12;;;;;;;;;15.25;13.75;;;;;7.32;69.20;100338.34;5016464;28;45367;-76
2022/03/07 07:24:38;;;;;;;;;19.25;18.25;;;;;7.32;68.41;100314.03;5017630;28;45324;-76
2022/03/07 07:27:04;;;;;;;;;25.00;21.50;;;;;7.39;67.76;100291.81;5032388;28;45708;-77
2022/03/07 07:29:30;;;;;;;;;14.50;12.75;;;;;7.68;67.25;100324.09;5015800;28;46429;-76
2022/03/07 07:31:56;;;;;;;;;38.50;30.50;;;;;7.68;66.86;100314.59;5048177;28;45485;-77
2022/03/07 07:34:22;;;;;;;;;15.50;14.00;;;;;7.84;66.78;100328.16;5050970;28;45490;-76
2022/03/07 07:36:48;;;;;;;;;14.75;14.50;;;;;7.85;66.16;100290.94;5051082;28;45679;-81
2022/03/07 07:39:15;;;;;;;;;15.75;14.50;;;;;8.07;65.91;100280.47;5032828;28;45595;-76
2022/03/07 07:41:40;;;;;;;;;24.50;22.00;;;;;8.30;65.07;100286.47;5051017;28;45701;-76
2022/03/07 07:44:06;;;;;;;;;17.50;15.50;;;;;8.50;65.05;100307.16;5051315;28;46073;-77
2022/03/07 07:46:32;;;;;;;;;17.00;17.00;;;;;8.63;64.59;100313.66;5034590;28;45574;-82
2022/03/07 07:48:57;;;;;;;;;15.75;11.50;;;;;8.80;64.36;100327.25;5035245;28;46435;-76
2022/03/07 07:51:27;;;;;;;;;10.00;8.75;;;;;8.31;63.46;100227.50;5035561;28;45459;-76
2022/03/07 07:53:53;;;;;;;;;13.75;12.25;;;;;8.84;63.13;100295.25;5035427;28;45495;-76
2022/03/07 07:56:18;;;;;;;;;10.25;9.00;;;;;8.94;62.66;100310.34;5035517;28;45411;-77
2022/03/07 07:58:44;;;;;;;;;9.50;8.50;;;;;8.87;61.37;100278.03;5034194;28;47519;-73
2022/03/07 08:01:10;;;;;;;;;8.75;7.75;;;;;9.19;61.16;100330.28;5036467;28;45369;-74
2022/03/07 08:03:35;;;;;;;;;8.00;8.00;;;;;9.19;61.01;100306.84;5051742;28;45498;-73
2022/03/07 08:06:01;;;;;;;;;12.75;11.00;;;;;9.33;60.73;100313.34;5037436;28;45310;-73
2022/03/07 08:08:27;;;;;;;;;13.50;13.25;;;;;9.49;60.38;100316.41;5037045;28;46239;-73
2022/03/07 08:10:53;;;;;;;;;12.50;11.25;;;;;9.58;61.62;100329.75;5036755;28;45910;-71
2022/03/07 08:13:19;;;;;;;;;11.00;9.25;;;;;9.51;62.67;100309.53;5034199;28;45604;-70
2022/03/07 08:15:44;;;;;;;;;10.75;10.00;;;;;9.50;62.86;100289.50;5032279;28;45473;-71
2022/03/07 08:18:10;;;;;;;;;8.50;8.50;;;;;9.81;62.12;100312.19;5035585;28;45381;-71
2022/03/07 08:20:36;;;;;;;;;30.00;28.25;;;;;10.14;60.49;100324.41;5032772;28;45554;-73
2022/03/07 08:23:02;;;;;;;;;51.75;44.00;;;;;10.28;61.06;100314.34;5016035;28;45483;-72
2022/03/07 08:25:28;;;;;;;;;14.25;13.50;;;;;10.49;60.38;100312.34;5016077;28;45478;-73
2022/03/07 08:27:56;;;;;;;;;19.50;17.50;;;;;10.88;59.84;100315.94;5030184;28;46575;-72
2022/03/07 08:30:23;;;;;;;;;15.75;15.00;;;;;10.85;58.21;100243.59;5023120;28;45552;-73
2022/03/07 08:32:49;;;;;;;;;12.00;11.25;;;;;12.09;55.15;100234.03;5035754;28;45517;-72
2022/03/07 08:35:16;;;;;;;;;18.00;18.00;;;;;12.49;54.86;100311.63;5035702;28;45355;-74
2022/03/07 08:37:45;;;;;;;;;12.25;12.00;;;;;12.38;55.97;100310.56;5034245;28;46218;-74
2022/03/07 08:40:12;;;;;;;;;15.00;13.00;;;;;12.46;55.58;100314.19;5049925;28;45453;-73
2022/03/07 08:42:38;;;;;;;;;16.50;14.25;;;;;12.66;55.31;100311.94;5034266;28;45415;-73
2022/03/07 08:45:06;;;;;;;;;12.50;11.75;;;;;13.01;53.99;100306.41;5034540;28;45886;-72
2022/03/07 08:47:36;;;;;;;;;12.50;10.75;;;;;14.17;51.92;100305.41;5049360;28;45556;-72
2022/03/07 08:50:02;;;;;;;;;12.50;11.00;;;;;18.00;44.64;100301.63;5029961;28;45446;-72
2022/03/07 08:52:27;;;;;;;;;10.00;9.33;;;;;20.77;38.72;100272.38;5033835;28;45420;-72
2022/03/07 08:54:53;;;;;;;;;13.00;12.33;;;;;22.79;34.94;100272.72;5033945;28;45517;-73
2022/03/07 08:57:19;;;;;;;;;11.00;9.33;;;;;24.11;32.41;100273.63;5033817;28;45463;-73
2022/03/07 08:59:44;;;;;;;;;12.67;10.00;;;;;24.94;31.49;100273.66;5048799;28;45394;-74
2022/03/07 09:02:10;;;;;;;;;10.00;8.67;;;;;25.60;29.95;100276.75;5033979;28;45458;-75
2022/03/07 09:04:37;;;;;;;;;10.00;9.67;;;;;26.29;28.35;100262.56;5053039;28;45541;-81
2022/03/07 09:07:03;;;;;;;;;11.33;11.00;;;;;27.15;29.52;100244.75;5037525;28;47974;-76
2022/03/07 09:09:29;;;;;;;;;13.00;10.33;;;;;27.83;25.66;100271.25;5038993;28;45677;-77
2022/03/07 09:11:55;;;;;;;;;9.00;8.67;;;;;28.15;26.87;100264.41;5039057;28;45517;-77
2022/03/07 09:14:22;;;;;;;;;9.33;9.00;;;;;28.44;26.71;100263.03;5054462;28;45767;-76
2022/03/07 09:16:48;;;;;;;;;8.33;8.00;;;;;28.79;24.79;100233.56;5037468;28;46743;-80
2022/03/07 09:19:14;;;;;;;;;14.00;14.00;;;;;29.45;24.39;100253.50;5053940;28;45780;-77
2022/03/07 09:21:39;;;;;;;;;10.67;9.00;;;;;28.68;23.72;100239.47;5038699;28;45316;-76
2022/03/07 09:24:07;;;;;;;;;8.00;7.33;;;;;28.80;24.74;100259.47;5039564;28;45780;-78
2022/03/07 09:26:32;;;;;;;;;7.00;6.33;;;;;27.84;25.42;100243.50;5053292;28;46966;-75
2022/03/07 09:28:59;;;;;;;;;9.00;8.33;;;;;26.63;26.92;100263.91;5038715;28;45493;-78
2022/03/07 09:31:27;;;;;;;;;7.00;6.33;;;;;24.40;28.53;100267.38;5037191;28;45495;-78
2022/03/07 09:33:52;;;;;;;;;10.00;10.00;;;;;24.42;29.95;100217.47;5054170;28;45336;-80
2022/03/07 09:36:18;;;;;;;;;15.67;14.33;;;;;26.88;26.28;100245.00;5038355;28;45584;-71
2022/03/07 09:38:44;;;;;;;;;13.33;11.67;;;;;28.35;25.08;100232.13;5035128;28;45490;-72
2022/03/07 09:41:10;;;;;;;;;9.33;9.33;;;;;27.00;25.71;100238.25;5036932;28;46055;-73
2022/03/07 09:43:36;;;;;;;;;14.00;12.67;;;;;24.47;27.93;100230.69;5036654;28;45874;-73
2022/03/07 09:46:03;;;;;;;;;13.00;11.00;;;;;25.74;27.48;100244.09;5033700;28;46395;-75
2022/03/07 09:48:28;;;;;;;;;16.00;13.33;;;;;27.63;25.08;100232.78;5036614;28;45597;-74
2022/03/07 09:50:55;;;;;;;;;16.33;14.33;;;;;29.24;23.83;100217.84;5036556;28;45544;-73
2022/03/07 09:53:21;;;;;;;;;15.00;14.33;;;;;30.15;22.81;100197.59;5036585;28;45469;-74
2022/03/07 09:55:47;;;;;;;;;15.00;14.33;;;;;30.70;22.61;100220.53;5036307;28;45782;-74
2022/03/07 09:58:14;;;;;;;;;15.00;14.00;;;;;31.02;22.01;100217.72;5036808;28;45514;-74
2022/03/07 10:00:41;;;;;;;;;15.00;15.00;;;;;31.21;20.57;100221.06;5036401;28;45469;-73
2022/03/07 10:03:12;;;;;;;;;16.67;16.00;;;;;31.51;20.79;100212.94;5048870;28;45492;-73
2022/03/07 10:05:44;;;;;;;;;16.33;15.67;;;;;31.54;21.57;100222.66;5034635;28;45573;-74
2022/03/07 10:08:11;;;;;;;;;14.33;13.67;;;;;31.48;20.35;100199.63;5033961;28;45355;-75
2022/03/07 10:10:41;;;;;;;;;17.00;15.33;;;;;31.56;21.03;100187.47;5035944;28;45503;-75
2022/03/07 10:13:14;;;;;;;;;11.67;11.67;;;;;31.30;20.42;100195.34;5032112;28;45653;-75
2022/03/07 10:15:41;;;;;;;;;14.67;13.67;;;;;31.05;19.79;100207.63;5032379;28;45492;-75
2022/03/07 10:18:26;;;;;;;;;17.00;14.00;;;;;30.45;21.11;100208.47;5034754;28;45550;-75
2022/03/07 10:20:55;;;;;;;;;16.00;16.00;;;;;30.59;21.43;100194.19;5034828;28;45501;-75
2022/03/07 10:23:22;;;;;;;;;15.00;15.00;;;;;31.15;20.81;100204.38;5033789;28;45470;-75
2022/03/07 10:25:48;;;;;;;;;14.00;14.00;;;;;31.08;20.25;100158.03;5051991;28;47284;-75
2022/03/07 10:28:14;;;;;;;;;15.00;14.00;;;;;31.64;19.21;100190.56;5036743;28;45512;-76
2022/03/07 10:30:40;;;;;;;;;14.00;12.33;;;;;31.82;19.23;100183.97;5036017;28;45663;-77
2022/03/07 10:33:08;;;;;;;;;12.00;11.67;;;;;31.68;19.97;100181.28;5036664;28;45733;-82
2022/03/07 10:35:36;;;;;;;;;13.00;12.00;;;;;31.40;19.67;100195.66;5051605;28;47760;-75
2022/03/07 10:38:13;;;;;;;;;11.67;11.00;;;;;31.46;20.89;100187.19;5036620;28;45477;-76
2022/03/07 10:40:43;;;;;;;;;12.00;11.00;;;;;30.73;19.79;100183.44;5037350;28;45349;-76
2022/03/07 10:43:09;;;;;;;;;12.33;12.00;;;;;29.08;22.19;100170.19;5036769;28;45549;-75
2022/03/07 10:45:48;;;;;;;;;16.00;15.00;;;;;26.90;24.99;100172.56;5036448;28;46224;-76
2022/03/07 10:48:14;;;;;;;;;15.67;14.00;;;;;25.26;27.00;100185.31;5035670;28;45437;-74
2022/03/07 10:50:45;;;;;;;;;14.33;14.33;;;;;23.93;28.38;100180.78;5034840;28;45517;-74
2022/03/07 10:53:11;;;;;;;;;13.33;12.00;;;;;22.93;29.88;100180.97;5050696;28;45651;-74
2022/03/07 10:55:36;;;;;;;;;14.00;13.00;;;;;22.26;30.15;100173.75;5035399;28;46371;-75
2022/03/07 10:58:11;;;;;;;;;15.67;13.33;;;;;21.82;31.64;100175.63;5039508;28;45493;-73
2022/03/07 11:00:56;;;;;;;;;12.67;12.33;;;;;22.63;29.74;100173.72;5036279;28;45492;-73
2022/03/07 11:03:31;;;;;;;;;16.33;15.67;;;;;25.15;27.15;100165.16;5031656;28;45504;-73
2022/03/07 11:05:58;;;;;;;;;16.00;15.33;;;;;25.25;26.95;100160.38;5033913;28;46373;-74
2022/03/07 11:08:24;;;;;;;;;17.00;14.67;;;;;25.35;26.81;100183.16;5035102;28;45707;-74
2022/03/07 11:10:53;;;;;;;;;21.00;20.67;;;;;25.19;25.56;100168.59;5034024;28;45582;-75
2022/03/07 11:13:29;;;;;;;;;19.67;18.00;;;;;25.32;26.59;100161.88;5034123;28;45454;-79
2022/03/07 11:16:02;;;;;;;;;17.33;16.00;;;;;25.18;26.23;100149.00;5035154;28;46663;-75
2022/03/07 11:18:29;;;;;;;;;16.00;13.00;;;;;25.15;26.83;100143.78;5033746;28;45555;-76
2022/03/07 11:20:56;;;;;;;;;19.67;17.67;;;;;25.43;26.05;100148.13;5050774;28;45463;-74